KBRO/BRO METAR and TAF weather

Enter ICAO airport designator
Station Type Date Time Source
KBRO METAR 2020/09/22 15:53 UTC NOAA

KBRO 221553Z VRB06KT 10SM CLR 28/21 A2997 RMK AO2 SLP146 T02830211


Station Type Date Time Source
KBRO Decoded METAR 2020/09/22 15:53 UTC NOAA

BROWNSVILLE/SOUTH PADRE IS, TX, United States (KBRO) 25-54N 97-25W 5M
Sep 22, 2020 - 11:53 AM EDT / 2020.09.22 1553 UTC
Wind: Variable at 7 MPH (6 KT):0
Visibility: 10 mile(s):0
Sky conditions: clear
Temperature: 82.9 F (28.3 C)
Dew Point: 70.0 F (21.1 C)
Relative Humidity: 65%
Pressure (altimeter): 29.97 in. Hg (1014 hPa)
ob: KBRO 221553Z VRB06KT 10SM CLR 28/21 A2997 RMK AO2 SLP146 T02830211
cycle: 16

Station Type Date Time Source
KBRO TAF 2020/09/22 16:12 UTC NOAA

TAF
AMD KBRO 221610Z 2216/2312 VRB06KT P6SM SCT250
FM222100 36011KT P6SM FEW050 SCT100 BKN200
FM230100 32004KT P6SM BKN060 BKN200
FM230900 29006KT P6SM FEW050 SCT080 BKN180

Example: see airport list